Weather at Dallas Love Field

Public forecast

Using degrees Fahrenheit for public forecast. Weather courtesy of forecast.io.

Current aviation weather report (METAR) for Dallas Love Field

2024/04/16 15:53 (retrieved 44 minutes ago)

KDAL 161553Z 18008KT 9SM FEW006 SCT025 BKN055 BKN130 BKN250 22/21 A2983 RMK AO2 RAE35 SLP096 SHRA DSNT NE-SE P0003 T02220206

Aviation forecast (TAF) for Dallas Love Field

2024/04/16 15:15 Ammendment (retrieved 1 hour ago)

TAF AMD KDAL 161511Z 1615/1712 20014KT 4SM -RA BR BKN014 OVC050 FM161600 20014KT P6SM BKN015 OVC050 FM161730 22013G23KT P6SM SCT200 FM170000 19008KT P6SM BKN250 FM170800 18011KT P6SM BKN022